Time;durP1;ratioP1;P1;durP2;ratioP2;P2;SDS_P1;SDS_P2;PMS_P1;PMS_P2;Temp;Humidity;BMP_temperature;BMP_pressure;BME280_temperature;BME280_humidity;BME280_pressure;Samples;Min_cycle;Max_cycle;Signal;HPM_P1;HPM_P2
2021/03/26 00:01:22;;;;;;;8.40;7.53;;;10.60;95.00;;;;;;5108905;28;20275;-53
2021/03/26 00:03:51;;;;;;;9.00;7.13;;;10.40;94.80;;;;;;5101272;27;20669;-53
2021/03/26 00:06:19;;;;;;;8.18;7.38;;;10.50;94.70;;;;;;5101923;27;20241;-53
2021/03/26 00:08:45;;;;;;;10.07;7.60;;;10.70;94.90;;;;;;5108197;27;20203;-53
2021/03/26 00:11:12;;;;;;;10.17;8.07;;;10.60;94.90;;;;;;5113025;27;20274;-53
2021/03/26 00:13:37;;;;;;;10.02;7.13;;;10.50;94.80;;;;;;5109429;27;20458;-53
2021/03/26 00:16:05;;;;;;;11.87;8.10;;;10.90;95.00;;;;;;5096022;28;20205;-53
2021/03/26 00:18:31;;;;;;;11.93;8.13;;;10.60;94.70;;;;;;5096362;27;20462;-52
2021/03/26 00:20:57;;;;;;;9.57;7.43;;;10.60;94.70;;;;;;5106458;27;20287;-52
2021/03/26 00:23:22;;;;;;;10.52;7.55;;;10.80;95.00;;;;;;5103666;27;20306;-52
2021/03/26 00:25:48;;;;;;;9.53;8.00;;;10.40;94.90;;;;;;5111185;27;20270;-52
2021/03/26 00:28:14;;;;;;;7.70;6.63;;;10.40;95.00;;;;;;5114373;27;21065;-53
2021/03/26 00:30:40;;;;;;;8.00;7.20;;;10.70;95.00;;;;;;5112242;27;20225;-53
2021/03/26 00:33:07;;;;;;;10.13;7.70;;;10.60;95.00;;;;;;5109637;27;20446;-53
2021/03/26 00:35:34;;;;;;;7.97;7.18;;;10.40;94.70;;;;;;5108993;28;20434;-53
2021/03/26 00:37:59;;;;;;;11.25;8.57;;;10.80;95.00;;;;;;5101920;28;20272;-52
2021/03/26 00:40:25;;;;;;;10.20;8.40;;;10.40;94.70;;;;;;5094117;27;20193;-53
2021/03/26 00:42:52;;;;;;;9.65;7.75;;;10.80;95.10;;;;;;5093325;28;20218;-53
2021/03/26 00:45:27;;;;;;;10.55;7.95;;;10.70;95.00;;;;;;5099343;27;20656;-53
2021/03/26 00:47:53;;;;;;;8.48;7.72;;;10.50;95.00;;;;;;5099649;28;20195;-53
2021/03/26 00:50:27;;;;;;;8.73;7.47;;;10.30;95.00;;;;;;5099778;28;20237;-53
2021/03/26 00:52:53;;;;;;;8.70;7.80;;;10.60;95.30;;;;;;5106586;27;20419;-53
2021/03/26 00:55:19;;;;;;;8.77;7.70;;;10.40;95.30;;;;;;5105732;28;20191;-53
2021/03/26 00:57:45;;;;;;;9.77;7.68;;;10.20;95.30;;;;;;5105692;27;20190;-53
2021/03/26 01:00:16;;;;;;;9.93;7.70;;;10.10;95.40;;;;;;5105393;27;20267;-53
2021/03/26 01:02:42;;;;;;;8.35;7.30;;;10.10;95.60;;;;;;5108008;27;20214;-53
2021/03/26 01:05:11;;;;;;;12.37;8.37;;;10.30;95.90;;;;;;5101699;28;20210;-53
2021/03/26 01:07:37;;;;;;;8.18;7.07;;;10.10;95.90;;;;;;5096925;27;20653;-51
2021/03/26 01:10:07;;;;;;;10.60;9.60;;;9.60;96.50;;;;;;5098562;27;20230;-51
2021/03/26 01:12:33;;;;;;;7.97;7.03;;;9.90;96.90;;;;;;5100909;28;20275;-51
2021/03/26 01:14:58;;;;;;;10.77;8.50;;;9.90;96.80;;;;;;5100408;27;20274;-51
2021/03/26 01:17:24;;;;;;;11.20;8.03;;;10.00;96.70;;;;;;5108789;27;20207;-51
2021/03/26 01:19:49;;;;;;;8.80;7.67;;;9.80;97.30;;;;;;5107468;27;20211;-51
2021/03/26 01:22:15;;;;;;;10.97;7.50;;;9.80;97.50;;;;;;5120873;27;20298;-52
2021/03/26 01:24:41;;;;;;;10.80;7.87;;;9.70;97.70;;;;;;5099525;28;20657;-52
2021/03/26 01:27:07;;;;;;;10.70;8.50;;;9.60;97.90;;;;;;5093645;27;20321;-52
2021/03/26 01:29:33;;;;;;;10.55;8.90;;;9.50;97.90;;;;;;5095712;27;20298;-52
2021/03/26 01:31:59;;;;;;;10.77;9.20;;;9.50;98.10;;;;;;5103588;27;20748;-52
2021/03/26 01:34:25;;;;;;;12.63;8.70;;;9.30;98.40;;;;;;5104166;27;20195;-53
2021/03/26 01:36:50;;;;;;;9.90;8.67;;;9.00;98.40;;;;;;5108082;28;20193;-52
2021/03/26 01:39:17;;;;;;;8.63;7.80;;;9.40;98.80;;;;;;5092417;28;20243;-52
2021/03/26 01:41:46;;;;;;;9.75;7.95;;;9.20;98.50;;;;;;5100750;28;20415;-53
2021/03/26 01:44:13;;;;;;;7.85;7.05;;;9.40;98.70;;;;;;5099287;28;20199;-53
2021/03/26 01:46:40;;;;;;;8.88;7.30;;;9.00;98.70;;;;;;5092012;28;20198;-53
2021/03/26 01:49:07;;;;;;;11.15;8.25;;;9.10;98.80;;;;;;5095386;27;20195;-52
2021/03/26 01:51:46;;;;;;;8.25;7.43;;;9.30;98.90;;;;;;5106670;27;20187;-52
2021/03/26 01:54:15;;;;;;;11.50;8.18;;;9.00;99.20;;;;;;5101267;27;20175;-52
2021/03/26 01:56:41;;;;;;;11.98;8.77;;;9.10;99.30;;;;;;5098691;28;20330;-52
2021/03/26 01:59:08;;;;;;;9.38;6.90;;;9.20;99.70;;;;;;5091527;28;20208;-52
2021/03/26 02:02:02;;;;;;;11.15;8.65;;;8.90;99.50;;;;;;5104731;28;20275;-52
2021/03/26 02:04:37;;;;;;;10.98;8.43;;;9.00;99.50;;;;;;5104952;27;20187;-52
2021/03/26 02:07:03;;;;;;;11.07;7.97;;;9.10;99.60;;;;;;5109060;27;20177;-52
2021/03/26 02:09:36;;;;;;;9.05;7.80;;;9.00;99.60;;;;;;5096340;28;20715;-52
2021/03/26 02:12:05;;;;;;;9.50;7.70;;;9.00;99.80;;;;;;5093776;28;20649;-52
2021/03/26 02:14:43;;;;;;;10.02;7.82;;;8.80;99.80;;;;;;5109593;27;20194;-52
2021/03/26 02:17:13;;;;;;;9.10;7.50;;;8.80;99.90;;;;;;5102521;28;20656;-51
2021/03/26 02:19:45;;;;;;;7.30;6.63;;;8.50;99.90;;;;;;5092254;28;20204;-52
2021/03/26 02:22:13;;;;;;;11.75;8.70;;;8.90;99.90;;;;;;5110247;27;20695;-52
2021/03/26 02:24:40;;;;;;;11.82;7.93;;;8.70;99.90;;;;;;5111006;27;20191;-52
2021/03/26 02:27:16;;;;;;;8.88;7.97;;;8.60;99.90;;;;;;5112106;27;20266;-51
2021/03/26 02:29:42;;;;;;;9.75;7.57;;;8.60;99.90;;;;;;5105565;28;20668;-51
2021/03/26 02:32:26;;;;;;;9.27;7.20;;;8.80;99.90;;;;;;5100155;28;20178;-52
2021/03/26 02:35:14;;;;;;;7.82;6.70;;;8.60;99.90;;;;;;5101838;28;20187;-52
2021/03/26 02:37:44;;;;;;;9.55;7.15;;;8.50;99.90;;;;;;5122263;28;20214;-51
2021/03/26 02:40:27;;;;;;;9.40;7.30;;;9.00;99.90;;;;;;5102331;28;20670;-52
2021/03/26 02:43:00;;;;;;;9.30;8.40;;;8.90;99.90;;;;;;5100232;28;20503;-52
2021/03/26 02:45:55;;;;;;;7.88;7.07;;;8.50;99.90;;;;;;5106691;28;20261;-52
2021/03/26 02:48:30;;;;;;;8.35;7.47;;;8.90;99.90;;;;;;5107631;28;20691;-52
2021/03/26 02:51:08;;;;;;;8.23;7.35;;;8.90;99.90;;;;;;5095673;28;20175;-52
2021/03/26 02:54:08;;;;;;;12.40;7.88;;;9.10;99.90;;;;;;5100892;28;20205;-51
2021/03/26 02:56:50;;;;;;;9.65;7.60;;;8.70;99.90;;;;;;5098658;28;20188;-52
2021/03/26 02:59:37;;;;;;;8.88;7.55;;;8.70;99.90;;;;;;5116872;28;20217;-52
2021/03/26 03:02:06;;;;;;;9.85;8.82;;;8.70;99.90;;;;;;5097335;28;20210;-52
2021/03/26 03:04:41;;;;;;;9.52;8.20;;;8.70;99.90;;;;;;5092571;28;20217;-52
2021/03/26 03:07:21;;;;;;;8.50;7.40;;;8.50;99.90;;;;;;5110731;28;20230;-52
2021/03/26 03:09:52;;;;;;;7.53;6.82;;;8.70;99.90;;;;;;5108878;28;20773;-52
2021/03/26 03:12:33;;;;;;;9.50;7.28;;;8.70;99.90;;;;;;5099704;28;20668;-52
2021/03/26 03:15:23;;;;;;;12.48;8.07;;;8.70;99.90;;;;;;5100675;28;20187;-52
2021/03/26 03:18:13;;;;;;;8.73;7.32;;;8.60;99.90;;;;;;5104837;28;20246;-52
2021/03/26 03:20:46;;;;;;;8.00;7.10;;;8.60;99.90;;;;;;5106887;28;20219;-52
2021/03/26 03:23:21;;;;;;;8.85;7.10;;;8.70;99.90;;;;;;5110784;28;20816;-52
2021/03/26 03:25:47;;;;;;;9.35;6.90;;;8.60;99.90;;;;;;5106162;28;20555;-52
2021/03/26 03:28:37;;;;;;;11.50;7.53;;;8.30;99.90;;;;;;5098344;28;20195;-52
2021/03/26 03:31:23;;;;;;;9.00;6.82;;;8.30;99.90;;;;;;5100687;28;20180;-52
2021/03/26 03:34:15;;;;;;;11.68;7.63;;;8.40;99.90;;;;;;5105439;28;20668;-52
2021/03/26 03:36:55;;;;;;;8.10;7.25;;;8.10;99.90;;;;;;5097689;28;20207;-52
2021/03/26 03:39:23;;;;;;;9.35;7.22;;;8.10;99.90;;;;;;5095192;28;20306;-51
2021/03/26 03:42:16;;;;;;;8.10;7.30;;;8.30;99.90;;;;;;5094352;28;20210;-52
2021/03/26 03:44:47;;;;;;;8.20;6.50;;;8.00;99.90;;;;;;5070776;28;20192;-52
2021/03/26 03:47:28;;;;;;;10.20;7.63;;;8.00;99.90;;;;;;5112130;27;20185;-52
2021/03/26 03:50:01;;;;;;;8.50;6.65;;;8.10;99.90;;;;;;5102496;27;20198;-52
2021/03/26 03:52:38;;;;;;;9.75;8.00;;;8.10;99.90;;;;;;5104840;27;20561;-52
2021/03/26 03:55:20;;;;;;;7.47;6.78;;;8.00;99.90;;;;;;5106612;27;20182;-52
2021/03/26 03:58:01;;;;;;;9.05;7.55;;;7.90;99.90;;;;;;5102363;27;20215;-52
2021/03/26 04:00:41;;;;;;;10.38;7.60;;;8.10;99.90;;;;;;5119331;27;20607;-52
2021/03/26 04:03:20;;;;;;;9.85;6.75;;;8.10;99.90;;;;;;5122606;27;20222;-51
2021/03/26 04:05:54;;;;;;;8.70;7.55;;;8.20;99.90;;;;;;5124177;27;20243;-52
2021/03/26 04:08:22;;;;;;;10.38;7.93;;;8.20;99.90;;;;;;5093932;28;20213;-52
2021/03/26 04:10:57;;;;;;;8.75;7.30;;;7.90;99.90;;;;;;5101104;27;20175;-52
2021/03/26 04:13:30;;;;;;;13.77;8.20;;;7.90;99.90;;;;;;5105822;27;20648;-52
2021/03/26 04:15:59;;;;;;;10.77;8.18;;;8.10;99.90;;;;;;5103206;27;20199;-52
2021/03/26 04:18:47;;;;;;;16.30;8.18;;;7.90;99.90;;;;;;5108857;27;20210;-52
2021/03/26 04:21:19;;;;;;;9.60;8.05;;;7.80;99.90;;;;;;5098714;27;20215;-52
2021/03/26 04:24:00;;;;;;;9.05;7.57;;;7.70;99.90;;;;;;5099506;28;20749;-52
2021/03/26 04:26:36;;;;;;;8.00;7.20;;;7.80;99.90;;;;;;5118861;27;20178;-52
2021/03/26 04:29:10;;;;;;;8.85;7.90;;;7.90;99.90;;;;;;5094774;28;20207;-52
2021/03/26 04:31:45;;;;;;;11.00;7.57;;;7.90;99.90;;;;;;5093562;28;20175;-52
2021/03/26 04:34:11;;;;;;;13.25;8.20;;;8.00;99.90;;;;;;5119703;27;20190;-52
2021/03/26 04:37:00;;;;;;;8.13;7.32;;;7.90;99.90;;;;;;5111236;27;20179;-52
2021/03/26 04:39:34;;;;;;;9.35;7.80;;;8.10;99.90;;;;;;5123011;27;20242;-51
2021/03/26 04:42:11;;;;;;;10.55;9.45;;;7.90;99.90;;;;;;5094047;27;20551;-51
2021/03/26 04:44:46;;;;;;;11.88;8.93;;;7.40;99.90;;;;;;5100211;28;20186;-51
2021/03/26 04:47:31;;;;;;;12.13;8.90;;;7.80;99.90;;;;;;5112634;27;20185;-51
2021/03/26 04:50:04;;;;;;;9.52;7.38;;;8.00;99.90;;;;;;5099583;27;20183;-51
2021/03/26 04:52:40;;;;;;;9.18;7.68;;;7.90;99.90;;;;;;5103918;27;20184;-51
2021/03/26 04:55:21;;;;;;;8.55;7.40;;;7.80;99.90;;;;;;5101679;27;20547;-51
2021/03/26 04:57:54;;;;;;;9.20;7.68;;;7.90;99.90;;;;;;5098454;28;20274;-51
2021/03/26 05:00:26;;;;;;;9.13;7.43;;;7.90;99.90;;;;;;5097497;27;20181;-51
2021/03/26 05:03:11;;;;;;;9.15;7.80;;;7.90;99.90;;;;;;5113161;27;20199;-51
2021/03/26 05:05:42;;;;;;;9.30;7.80;;;8.20;99.90;;;;;;5112575;27;20179;-52
2021/03/26 05:08:11;;;;;;;14.23;8.70;;;8.00;99.90;;;;;;5098646;28;20480;-51
2021/03/26 05:10:39;;;;;;;11.65;7.60;;;8.20;99.90;;;;;;5095885;27;20179;-51
2021/03/26 05:13:15;;;;;;;10.02;8.48;;;8.00;99.90;;;;;;5093617;28;20191;-51
2021/03/26 05:15:54;;;;;;;10.55;8.43;;;7.80;99.90;;;;;;5105808;27;20206;-51
2021/03/26 05:18:41;;;;;;;10.13;8.23;;;7.80;99.90;;;;;;5104763;28;20230;-51
2021/03/26 05:21:33;;;;;;;10.65;8.43;;;8.00;99.90;;;;;;5095308;27;20198;-52
2021/03/26 05:24:06;;;;;;;11.23;8.50;;;8.20;99.90;;;;;;5099046;27;20206;-51
2021/03/26 05:26:35;;;;;;;12.50;8.60;;;8.20;99.90;;;;;;5121199;27;20168;-51
2021/03/26 05:29:03;;;;;;;11.65;8.82;;;8.10;99.90;;;;;;5100392;28;20282;-51
2021/03/26 05:31:44;;;;;;;10.38;8.90;;;8.20;99.90;;;;;;5092289;27;20179;-51
2021/03/26 05:34:21;;;;;;;11.43;9.20;;;8.20;99.90;;;;;;5099523;27;20220;-51
2021/03/26 05:37:07;;;;;;;12.70;9.52;;;7.90;99.90;;;;;;5094941;27;20170;-52
2021/03/26 05:39:35;;;;;;;10.05;8.52;;;7.80;99.90;;;;;;5103675;27;20207;-51
2021/03/26 05:42:16;;;;;;;11.77;9.48;;;7.90;99.90;;;;;;5100647;27;20188;-51
2021/03/26 05:45:06;;;;;;;10.45;7.82;;;8.30;99.90;;;;;;5098755;27;20179;-51
2021/03/26 05:47:57;;;;;;;9.75;8.00;;;8.20;99.90;;;;;;5109137;27;20322;-51
2021/03/26 05:50:36;;;;;;;9.05;8.15;;;8.40;99.90;;;;;;5100536;27;20636;-51
2021/03/26 05:53:56;;;;;;;12.38;8.90;;;8.40;99.90;;;;;;5102551;28;20179;-51
2021/03/26 05:56:37;;;;;;;10.25;8.45;;;8.20;99.90;;;;;;5073915;27;20192;-51
2021/03/26 05:59:11;;;;;;;9.68;8.68;;;8.30;99.90;;;;;;5099087;27;20566;-51
2021/03/26 06:02:08;;;;;;;10.98;8.80;;;8.30;99.90;;;;;;5104693;27;20218;-51
2021/03/26 06:04:58;;;;;;;12.30;11.07;;;8.50;99.90;;;;;;5111609;27;20178;-51
2021/03/26 06:07:53;;;;;;;10.88;9.07;;;8.50;99.90;;;;;;5127522;27;20232;-51
2021/03/26 06:10:37;;;;;;;11.02;8.70;;;8.10;99.90;;;;;;5100848;28;20275;-52
2021/03/26 06:13:21;;;;;;;12.35;8.65;;;8.30;99.90;;;;;;5099552;27;20549;-52
2021/03/26 06:16:09;;;;;;;12.15;8.93;;;8.50;99.90;;;;;;5104546;27;20243;-50
2021/03/26 06:18:52;;;;;;;12.73;9.13;;;8.90;99.90;;;;;;5104680;27;20699;-50
2021/03/26 06:21:42;;;;;;;12.85;9.35;;;8.80;99.90;;;;;;5097412;28;20232;-52
2021/03/26 06:24:26;;;;;;;11.90;9.20;;;9.10;99.90;;;;;;5102505;28;20686;-50
2021/03/26 06:27:11;;;;;;;11.82;9.02;;;9.50;99.90;;;;;;5117411;28;20191;-52
2021/03/26 06:29:57;;;;;;;12.20;10.30;;;8.90;99.90;;;;;;5096915;28;20243;-49
2021/03/26 06:32:32;;;;;;;15.88;10.38;;;9.30;99.90;;;;;;5101864;28;20176;-53
2021/03/26 06:35:14;;;;;;;13.20;10.20;;;9.50;99.90;;;;;;5106508;28;20208;-53
2021/03/26 06:37:58;;;;;;;24.95;20.05;;;9.80;99.90;;;;;;5097356;28;20676;-53
2021/03/26 06:40:52;;;;;;;13.15;10.90;;;10.00;99.90;;;;;;5092979;28;20569;-54
2021/03/26 06:43:40;;;;;;;12.50;10.65;;;10.40;99.90;;;;;;5103260;28;20203;-53
2021/03/26 06:46:23;;;;;;;11.27;9.90;;;10.20;99.90;;;;;;5095526;28;20738;-53
2021/03/26 06:49:08;;;;;;;13.85;10.98;;;10.60;99.90;;;;;;5108574;28;20687;-53
2021/03/26 06:52:02;;;;;;;16.13;10.95;;;10.50;99.20;;;;;;5104883;28;20287;-52
2021/03/26 06:54:55;;;;;;;14.05;11.90;;;11.00;99.30;;;;;;5093988;28;20303;-53
2021/03/26 06:57:43;;;;;;;14.50;11.60;;;10.60;98.30;;;;;;5090046;28;20271;-51
2021/03/26 07:00:37;;;;;;;16.75;12.00;;;10.60;98.70;;;;;;5095802;28;20644;-50
2021/03/26 07:03:06;;;;;;;17.50;12.98;;;10.70;98.70;;;;;;5105696;28;20307;-51
2021/03/26 07:06:06;;;;;;;13.65;11.25;;;10.70;99.20;;;;;;5095669;28;20180;-51
2021/03/26 07:08:37;;;;;;;14.90;11.80;;;10.60;98.50;;;;;;5115622;28;20224;-52
2021/03/26 07:11:25;;;;;;;17.60;12.10;;;11.20;97.50;;;;;;5094765;28;20180;-49
2021/03/26 07:14:03;;;;;;;13.32;10.38;;;11.00;97.40;;;;;;5116906;28;20553;-62
2021/03/26 07:16:50;;;;;;;15.02;11.13;;;11.40;98.00;;;;;;5090092;28;20193;-54
2021/03/26 07:19:19;;;;;;;13.57;10.57;;;11.60;96.90;;;;;;5117874;28;20221;-54
2021/03/26 07:22:11;;;;;;;13.07;11.18;;;12.00;95.50;;;;;;5115893;27;20182;-52
2021/03/26 07:25:01;;;;;;;11.88;10.20;;;12.50;94.90;;;;;;5096791;27;20195;-52
2021/03/26 07:27:41;;;;;;;14.73;11.20;;;13.50;94.00;;;;;;5119879;27;20600;-56
2021/03/26 07:30:27;;;;;;;15.27;11.40;;;14.00;91.80;;;;;;5105115;27;20715;-56
2021/03/26 07:33:20;;;;;;;14.48;12.65;;;14.10;91.00;;;;;;5104717;27;20191;-51
2021/03/26 07:36:03;;;;;;;16.77;12.18;;;14.90;89.20;;;;;;5102205;27;20179;-52
2021/03/26 07:39:07;;;;;;;13.98;11.18;;;15.40;87.50;;;;;;5102528;27;20654;-52
2021/03/26 07:41:49;;;;;;;12.68;10.68;;;15.00;85.80;;;;;;5100040;27;20229;-52
2021/03/26 07:44:48;;;;;;;12.27;10.25;;;15.70;85.40;;;;;;5119151;27;20187;-52
2021/03/26 07:47:35;;;;;;;11.50;10.23;;;17.50;80.70;;;;;;5100372;27;20187;-52
2021/03/26 07:50:01;;;;;;;11.82;10.32;;;18.40;76.20;;;;;;5102358;27;20167;-52
2021/03/26 07:52:40;;;;;;;12.43;11.13;;;19.40;71.40;;;;;;5102458;27;20186;-52
2021/03/26 07:55:50;;;;;;;14.37;11.10;;;20.30;67.70;;;;;;5102862;27;20182;-52
2021/03/26 07:58:43;;;;;;;11.93;10.50;;;21.80;62.80;;;;;;5010446;28;20814;-50
2021/03/26 08:01:41;;;;;;;15.00;11.93;;;23.00;59.10;;;;;;5102775;27;20496;-50
2021/03/26 08:04:19;;;;;;;16.60;11.87;;;22.80;56.20;;;;;;5097931;27;20517;-52
2021/03/26 08:07:23;;;;;;;11.67;10.57;;;22.10;58.00;;;;;;5099886;27;20449;-53
2021/03/26 08:10:27;;;;;;;12.23;11.03;;;24.00;54.80;;;;;;5093700;27;20474;-53
2021/03/26 08:13:27;;;;;;;14.17;11.90;;;25.00;53.40;;;;;;5100786;27;20471;-52
2021/03/26 08:16:14;;;;;;;10.83;9.53;;;24.30;51.50;;;;;;5099893;27;21001;-52
2021/03/26 08:19:04;;;;;;;14.47;11.00;;;23.90;52.90;;;;;;5102475;27;20480;-52
2021/03/26 08:22:17;;;;;;;11.50;10.30;;;23.60;53.00;;;;;;5096500;27;20468;-50
2021/03/26 08:25:12;;;;;;;11.60;10.47;;;23.30;52.80;;;;;;5095281;27;20936;-50
2021/03/26 08:28:17;;;;;;;14.07;10.80;;;22.70;54.10;;;;;;5101965;27;20523;-51
2021/03/26 08:30:53;;;;;;;10.80;9.70;;;21.60;54.80;;;;;;5071287;27;20789;-53
2021/03/26 08:33:47;;;;;;;14.13;11.68;;;20.70;56.70;;;;;;5098655;28;20532;-51
2021/03/26 08:36:30;;;;;;;12.63;10.73;;;20.30;57.60;;;;;;5119150;27;20182;-52
2021/03/26 08:39:19;;;;;;;15.20;11.27;;;19.30;60.00;;;;;;5099771;27;20237;-52
2021/03/26 08:42:13;;;;;;;12.00;10.80;;;19.10;60.40;;;;;;5102608;27;20445;-53
2021/03/26 08:44:40;;;;;;;14.63;11.30;;;18.90;61.50;;;;;;5098591;27;20588;-51
2021/03/26 08:47:15;;;;;;;13.52;11.88;;;19.10;61.80;;;;;;5098223;27;20191;-52
2021/03/26 08:50:07;;;;;;;15.25;12.18;;;19.10;61.50;;;;;;5096783;27;20808;-52
2021/03/26 08:52:48;;;;;;;14.88;12.25;;;19.50;60.60;;;;;;5098782;27;20191;-53
2021/03/26 08:55:32;;;;;;;12.80;11.55;;;20.00;60.10;;;;;;5102660;27;20179;-52
2021/03/26 08:58:19;;;;;;;13.55;12.15;;;20.00;59.20;;;;;;5099389;27;20207;-51
2021/03/26 09:01:23;;;;;;;13.75;11.13;;;19.60;59.40;;;;;;5101245;27;20187;-52
2021/03/26 09:04:10;;;;;;;13.15;10.88;;;19.00;60.60;;;;;;5097524;27;20210;-51
2021/03/26 09:06:47;;;;;;;12.20;11.07;;;18.90;61.60;;;;;;5103721;27;20183;-51
2021/03/26 09:09:40;;;;;;;12.32;11.13;;;18.70;61.80;;;;;;5097729;27;20311;-52
2021/03/26 09:12:37;;;;;;;13.00;11.70;;;18.40;62.20;;;;;;5101331;27;20297;-52
2021/03/26 09:15:34;;;;;;;12.90;11.68;;;17.40;64.00;;;;;;5093704;27;20257;-52
2021/03/26 09:18:20;;;;;;;17.05;12.13;;;17.60;64.60;;;;;;5091516;27;20456;-54
2021/03/26 09:21:20;;;;;;;12.77;10.40;;;17.90;64.50;;;;;;5092667;27;20190;-52
2021/03/26 09:24:03;;;;;;;10.80;9.65;;;17.80;62.90;;;;;;5090394;27;20210;-51
2021/03/26 09:27:01;;;;;;;11.35;10.25;;;17.80;61.90;;;;;;5097161;27;20215;-50
2021/03/26 09:30:07;;;;;;;13.20;10.88;;;18.10;61.40;;;;;;5095772;27;20317;-49
2021/03/26 09:32:56;;;;;;;11.50;10.27;;;18.20;61.50;;;;;;5124646;27;20187;-50
2021/03/26 09:35:37;;;;;;;14.27;11.55;;;17.80;63.30;;;;;;5098780;27;20187;-51
2021/03/26 09:38:14;;;;;;;11.93;10.00;;;18.40;62.40;;;;;;5094770;27;20353;-53
2021/03/26 09:40:49;;;;;;;12.13;10.82;;;19.20;60.70;;;;;;5119436;27;20187;-53
2021/03/26 09:43:23;;;;;;;11.13;10.00;;;19.60;59.10;;;;;;5097333;27;20302;-53
2021/03/26 09:46:02;;;;;;;11.45;9.82;;;20.10;58.50;;;;;;5100177;27;20179;-51
2021/03/26 09:48:47;;;;;;;10.73;8.67;;;20.10;57.80;;;;;;5095709;27;20289;-53
2021/03/26 09:51:16;;;;;;;11.73;10.20;;;20.80;57.30;;;;;;5095149;27;20937;-52
2021/03/26 09:53:42;;;;;;;12.40;10.20;;;21.60;55.50;;;;;;5099319;27;20463;-53
2021/03/26 09:56:24;;;;;;;12.47;9.97;;;22.00;54.80;;;;;;5098627;27;20485;-55
2021/03/26 09:59:01;;;;;;;13.90;9.50;;;22.80;53.30;;;;;;5097978;27;20460;-50
2021/03/26 10:01:40;;;;;;;10.83;9.80;;;23.00;53.30;;;;;;5099792;27;20494;-51
2021/03/26 10:04:17;;;;;;;10.33;9.30;;;23.30;52.30;;;;;;5098066;27;21059;-53
2021/03/26 10:07:01;;;;;;;9.70;8.73;;;23.30;52.10;;;;;;5116328;27;20447;-53
2021/03/26 10:10:43;;;;;;;12.07;9.17;;;23.30;51.50;;;;;;5096752;27;20448;-52
2021/03/26 10:12:41;;;;;;;9.80;8.80;;;23.00;51.80;;;;;;5115925;27;20439;-52
2021/03/26 10:15:19;;;;;;;9.83;8.93;;;22.10;52.70;;;;;;5094265;27;20456;-53
2021/03/26 10:18:03;;;;;;;9.93;8.73;;;22.30;53.10;;;;;;5098200;27;21027;-53
2021/03/26 10:20:38;;;;;;;15.40;9.63;;;22.40;52.60;;;;;;5095724;27;20439;-52
2021/03/26 10:23:36;;;;;;;9.10;8.00;;;22.50;52.30;;;;;;5093942;27;20505;-53
2021/03/26 10:26:22;;;;;;;11.88;9.88;;;22.40;52.30;;;;;;5089341;27;20483;-50
2021/03/26 10:28:55;;;;;;;12.23;9.80;;;21.90;52.90;;;;;;5112697;27;20227;-55
2021/03/26 10:31:51;;;;;;;10.00;9.00;;;21.40;54.40;;;;;;5117710;27;20439;-51
2021/03/26 10:34:29;;;;;;;12.38;9.38;;;20.90;54.20;;;;;;5084324;27;20189;-51
2021/03/26 10:37:28;;;;;;;9.00;8.10;;;20.90;54.80;;;;;;5094758;28;20187;-51
2021/03/26 10:40:23;;;;;;;12.07;8.90;;;21.10;54.80;;;;;;5090658;28;20211;-52
2021/03/26 10:43:24;;;;;;;13.15;8.50;;;20.60;55.30;;;;;;5069265;28;20483;-52
2021/03/26 10:45:57;;;;;;;10.85;9.25;;;20.40;55.40;;;;;;5096261;28;20196;-52
2021/03/26 10:48:28;;;;;;;8.50;7.70;;;20.30;55.00;;;;;;5088857;28;20204;-51
2021/03/26 10:51:18;;;;;;;8.48;7.65;;;19.80;55.00;;;;;;5100486;28;20193;-53
2021/03/26 10:54:12;;;;;;;8.00;6.72;;;19.80;54.90;;;;;;5097282;28;20178;-53
2021/03/26 10:57:04;;;;;;;9.32;7.05;;;20.00;54.20;;;;;;5096711;27;20256;-52
2021/03/26 10:59:51;;;;;;;7.25;6.05;;;20.50;54.30;;;;;;5068905;27;20211;-51
2021/03/26 11:02:29;;;;;;;7.03;6.37;;;21.20;52.80;;;;;;5116129;27;20293;-52
2021/03/26 11:05:52;;;;;;;10.17;6.90;;;21.40;50.90;;;;;;5100955;27;20428;-51
2021/03/26 11:08:37;;;;;;;8.73;6.17;;;22.20;50.60;;;;;;5017736;28;20789;-53
2021/03/26 11:11:09;;;;;;;5.07;4.40;;;22.40;50.20;;;;;;5019779;28;20471;-51
2021/03/26 11:13:58;;;;;;;5.13;4.55;;;23.10;47.80;;;;;;5071887;27;20429;-53
2021/03/26 11:16:34;;;;;;;8.07;6.73;;;23.20;46.10;;;;;;5100020;28;20183;-53
2021/03/26 11:19:02;;;;;;;5.10;4.60;;;23.30;46.70;;;;;;5107188;27;20443;-53
2021/03/26 11:21:49;;;;;;;10.60;5.23;;;23.20;46.80;;;;;;5109279;27;20958;-53
2021/03/26 11:24:16;;;;;;;5.00;4.50;;;23.20;46.90;;;;;;5102635;28;20496;-53
2021/03/26 11:26:58;;;;;;;5.53;4.57;;;23.00;46.90;;;;;;5114432;27;20433;-52
2021/03/26 11:29:32;;;;;;;7.50;5.97;;;22.70;47.10;;;;;;5112943;27;20447;-53
2021/03/26 11:32:06;;;;;;;6.07;5.10;;;22.10;47.40;;;;;;5108026;27;20432;-53
2021/03/26 11:34:44;;;;;;;8.30;6.57;;;22.20;47.60;;;;;;5103801;27;20428;-53
2021/03/26 11:37:12;;;;;;;7.00;5.03;;;22.30;47.30;;;;;;5095427;27;20423;-54
2021/03/26 11:39:43;;;;;;;5.13;4.63;;;22.50;47.30;;;;;;5095458;27;21347;-54
2021/03/26 11:42:09;;;;;;;6.43;4.83;;;22.30;47.30;;;;;;5115926;27;21208;-55
2021/03/26 11:44:44;;;;;;;7.93;4.50;;;22.30;47.30;;;;;;5098525;27;20501;-53
2021/03/26 11:47:36;;;;;;;6.30;5.70;;;21.90;47.50;;;;;;5099726;27;20232;-53
2021/03/26 11:50:14;;;;;;;6.23;5.63;;;21.80;48.00;;;;;;5085450;27;20446;-52
2021/03/26 11:52:44;;;;;;;5.87;5.30;;;21.50;48.60;;;;;;5094845;27;21018;-53
2021/03/26 11:55:21;;;;;;;6.60;5.95;;;21.00;49.60;;;;;;5097772;27;20443;-52
2021/03/26 11:58:20;;;;;;;6.80;6.13;;;21.10;49.20;;;;;;5102486;27;20178;-52
2021/03/26 12:01:02;;;;;;;12.00;6.47;;;20.90;49.50;;;;;;5107125;27;20183;-53
2021/03/26 12:04:00;;;;;;;7.50;6.00;;;21.20;50.00;;;;;;5099637;27;20202;-54
2021/03/26 12:06:39;;;;;;;9.57;6.85;;;21.00;49.10;;;;;;5099401;27;20202;-53
2021/03/26 12:09:23;;;;;;;7.25;6.38;;;20.80;49.90;;;;;;5093145;27;20671;-53
2021/03/26 12:12:15;;;;;;;8.23;7.03;;;21.00;50.60;;;;;;5097266;27;20183;-53
2021/03/26 12:14:49;;;;;;;8.43;7.57;;;20.90;50.30;;;;;;5107734;27;20186;-56
2021/03/26 12:17:21;;;;;;;7.90;7.07;;;20.80;50.50;;;;;;5117723;27;20685;-51
2021/03/26 12:19:48;;;;;;;7.15;5.88;;;20.60;50.40;;;;;;5098965;27;20614;-53
2021/03/26 12:22:55;;;;;;;7.75;6.90;;;20.30;50.90;;;;;;5101631;27;20278;-54
2021/03/26 12:25:41;;;;;;;9.63;6.90;;;20.40;51.60;;;;;;5029048;27;20277;-54
2021/03/26 12:28:15;;;;;;;8.63;7.30;;;20.50;51.80;;;;;;5105089;27;20271;-54
2021/03/26 12:30:53;;;;;;;9.00;7.25;;;20.50;51.60;;;;;;5106722;27;20674;-52
2021/03/26 12:33:37;;;;;;;7.30;6.60;;;20.20;52.50;;;;;;5121456;27;20214;-51
2021/03/26 12:36:15;;;;;;;8.02;6.60;;;20.20;52.50;;;;;;5116106;27;20781;-52
2021/03/26 12:39:03;;;;;;;6.95;6.25;;;20.20;52.20;;;;;;5112978;27;20207;-51
2021/03/26 12:42:06;;;;;;;7.97;6.75;;;20.20;51.90;;;;;;5098437;27;20180;-52
2021/03/26 12:44:59;;;;;;;7.82;6.05;;;20.20;52.00;;;;;;5116654;27;20187;-53
2021/03/26 12:47:32;;;;;;;6.18;5.57;;;20.10;52.00;;;;;;5101956;27;20517;-52
2021/03/26 12:50:12;;;;;;;5.85;5.32;;;19.90;52.10;;;;;;5104696;27;20183;-53
2021/03/26 12:52:56;;;;;;;8.35;6.22;;;19.80;52.20;;;;;;5098729;27;20561;-51
2021/03/26 12:55:25;;;;;;;9.35;6.35;;;19.90;53.20;;;;;;5103353;27;20187;-51
2021/03/26 12:58:06;;;;;;;10.73;6.43;;;19.90;53.30;;;;;;5107802;27;20206;-51
2021/03/26 13:00:40;;;;;;;7.20;5.60;;;20.00;54.00;;;;;;5104594;27;20594;-53
2021/03/26 13:03:29;;;;;;;5.88;5.20;;;19.90;52.80;;;;;;5121513;27;20484;-52
2021/03/26 13:06:09;;;;;;;6.00;5.15;;;20.10;52.70;;;;;;5097024;27;20202;-54
2021/03/26 13:08:40;;;;;;;5.78;5.18;;;20.10;53.30;;;;;;5094284;27;20291;-54
2021/03/26 13:11:36;;;;;;;6.70;6.05;;;20.20;52.50;;;;;;5105874;27;20180;-54
2021/03/26 13:14:53;;;;;;;6.00;4.68;;;20.10;52.20;;;;;;5099159;27;20176;-54
2021/03/26 13:17:25;;;;;;;5.82;4.75;;;20.10;49.90;;;;;;5068820;27;20210;-54
2021/03/26 13:19:52;;;;;;;6.15;4.80;;;20.10;49.80;;;;;;5101440;27;20217;-55
2021/03/26 13:22:23;;;;;;;4.88;4.45;;;19.90;50.60;;;;;;5093758;28;20614;-56
2021/03/26 13:25:05;;;;;;;4.88;4.13;;;20.10;50.90;;;;;;5103534;27;20281;-54
2021/03/26 13:27:39;;;;;;;5.80;4.53;;;20.20;50.80;;;;;;5125320;27;20420;-55
2021/03/26 13:30:15;;;;;;;8.52;4.90;;;20.20;50.00;;;;;;5111630;27;20436;-51
2021/03/26 13:32:44;;;;;;;4.75;4.35;;;20.30;49.50;;;;;;5126377;27;20182;-51
2021/03/26 13:35:19;;;;;;;5.05;4.47;;;20.10;49.20;;;;;;5105007;27;20187;-56
2021/03/26 13:37:48;;;;;;;4.93;4.45;;;20.20;49.10;;;;;;5102333;27;20182;-56
2021/03/26 13:40:19;;;;;;;4.78;4.38;;;20.10;49.30;;;;;;5099257;27;20183;-56
2021/03/26 13:42:51;;;;;;;6.15;5.25;;;20.10;48.90;;;;;;5104533;27;20216;-54
2021/03/26 13:45:21;;;;;;;4.75;4.35;;;20.10;49.00;;;;;;5101687;28;20179;-55
2021/03/26 13:47:58;;;;;;;6.50;4.32;;;20.00;49.40;;;;;;5108181;27;20341;-51